sensor_id;sensor_type;location;lat;lon;timestamp;pressure;altitude;pressure_sealevel;temperature;humidity
43281;BME280;62175;49.416;8.690;2022-11-15T00:01:53;100256.54;;;13.71;56.93
43281;BME280;62175;49.416;8.690;2022-11-15T00:04:20;100251.35;;;13.40;57.82
43281;BME280;62175;49.416;8.690;2022-11-15T00:06:47;100253.35;;;13.56;57.87
43281;BME280;62175;49.416;8.690;2022-11-15T00:09:14;100246.89;;;13.40;58.16
43281;BME280;62175;49.416;8.690;2022-11-15T00:11:41;100242.33;;;13.44;57.56
43281;BME280;62175;49.416;8.690;2022-11-15T00:14:08;100234.86;;;13.21;57.91
43281;BME280;62175;49.416;8.690;2022-11-15T00:16:36;100236.11;;;13.31;58.14
43281;BME280;62175;49.416;8.690;2022-11-15T00:19:03;100231.01;;;13.66;56.92
43281;BME280;62175;49.416;8.690;2022-11-15T00:21:30;100234.68;;;13.45;57.40
43281;BME280;62175;49.416;8.690;2022-11-15T00:23:58;100229.30;;;13.65;57.52
43281;BME280;62175;49.416;8.690;2022-11-15T00:26:25;100223.29;;;13.64;57.21
43281;BME280;62175;49.416;8.690;2022-11-15T00:28:53;100223.79;;;13.82;56.71
43281;BME280;62175;49.416;8.690;2022-11-15T00:31:20;100223.22;;;14.01;57.77
43281;BME280;62175;49.416;8.690;2022-11-15T00:33:47;100224.56;;;13.47;56.86
43281;BME280;62175;49.416;8.690;2022-11-15T00:36:14;100225.45;;;13.53;57.19
43281;BME280;62175;49.416;8.690;2022-11-15T00:38:41;100223.96;;;13.43;59.28
43281;BME280;62175;49.416;8.690;2022-11-15T00:41:09;100221.11;;;13.51;56.98
43281;BME280;62175;49.416;8.690;2022-11-15T00:43:36;100224.63;;;13.47;57.83
43281;BME280;62175;49.416;8.690;2022-11-15T00:46:04;100216.17;;;13.37;57.15
43281;BME280;62175;49.416;8.690;2022-11-15T00:48:31;100209.59;;;13.23;57.20
43281;BME280;62175;49.416;8.690;2022-11-15T00:50:58;100206.85;;;13.27;57.48
43281;BME280;62175;49.416;8.690;2022-11-15T00:53:25;100202.95;;;13.97;56.88
43281;BME280;62175;49.416;8.690;2022-11-15T00:55:53;100209.97;;;13.47;57.06
43281;BME280;62175;49.416;8.690;2022-11-15T00:58:20;100204.43;;;13.46;57.35
43281;BME280;62175;49.416;8.690;2022-11-15T01:00:47;100200.18;;;13.56;56.02
43281;BME280;62175;49.416;8.690;2022-11-15T01:03:14;100195.98;;;13.77;57.13
43281;BME280;62175;49.416;8.690;2022-11-15T01:05:41;100195.94;;;13.65;56.53
43281;BME280;62175;49.416;8.690;2022-11-15T01:08:12;100195.40;;;13.36;56.66
43281;BME280;62175;49.416;8.690;2022-11-15T01:10:40;100193.75;;;13.39;57.91
43281;BME280;62175;49.416;8.690;2022-11-15T01:13:08;100194.45;;;13.56;56.25
43281;BME280;62175;49.416;8.690;2022-11-15T01:15:39;100191.39;;;13.68;56.83
43281;BME280;62175;49.416;8.690;2022-11-15T01:18:07;100188.97;;;13.76;56.75
43281;BME280;62175;49.416;8.690;2022-11-15T01:20:38;100185.52;;;13.61;56.06
43281;BME280;62175;49.416;8.690;2022-11-15T01:23:05;100183.89;;;13.66;56.23
43281;BME280;62175;49.416;8.690;2022-11-15T01:25:32;100187.51;;;13.47;56.38
43281;BME280;62175;49.416;8.690;2022-11-15T01:28:00;100185.17;;;13.64;57.19
43281;BME280;62175;49.416;8.690;2022-11-15T01:30:27;100190.94;;;13.66;56.73
43281;BME280;62175;49.416;8.690;2022-11-15T01:32:54;100191.96;;;13.70;56.16
43281;BME280;62175;49.416;8.690;2022-11-15T01:35:21;100194.70;;;13.46;56.35
43281;BME280;62175;49.416;8.690;2022-11-15T01:37:48;100185.27;;;13.32;56.35
43281;BME280;62175;49.416;8.690;2022-11-15T01:40:16;100179.86;;;13.17;57.52
43281;BME280;62175;49.416;8.690;2022-11-15T01:42:43;100178.28;;;13.21;57.71
43281;BME280;62175;49.416;8.690;2022-11-15T01:45:14;100168.09;;;12.92;57.51
43281;BME280;62175;49.416;8.690;2022-11-15T01:47:44;100179.99;;;13.31;56.43
43281;BME280;62175;49.416;8.690;2022-11-15T01:50:17;100170.78;;;13.15;57.74
43281;BME280;62175;49.416;8.690;2022-11-15T01:52:46;100170.56;;;13.41;57.19
43281;BME280;62175;49.416;8.690;2022-11-15T01:55:16;100168.57;;;13.29;56.65
43281;BME280;62175;49.416;8.690;2022-11-15T01:57:47;100168.55;;;13.28;56.61
43281;BME280;62175;49.416;8.690;2022-11-15T02:00:16;100175.78;;;13.39;55.46
43281;BME280;62175;49.416;8.690;2022-11-15T02:02:43;100164.97;;;13.48;56.60
43281;BME280;62175;49.416;8.690;2022-11-15T02:05:11;100158.49;;;12.93;56.57
43281;BME280;62175;49.416;8.690;2022-11-15T02:07:39;100159.02;;;13.51;56.23
43281;BME280;62175;49.416;8.690;2022-11-15T02:10:09;100150.70;;;13.12;56.41
43281;BME280;62175;49.416;8.690;2022-11-15T02:12:36;100148.32;;;13.28;56.47
43281;BME280;62175;49.416;8.690;2022-11-15T02:15:06;100148.58;;;13.64;56.73
43281;BME280;62175;49.416;8.690;2022-11-15T02:17:45;100146.46;;;13.63;57.10
43281;BME280;62175;49.416;8.690;2022-11-15T02:20:59;100149.49;;;13.09;56.78
43281;BME280;62175;49.416;8.690;2022-11-15T02:24:50;100136.96;;;13.04;56.50
43281;BME280;62175;49.416;8.690;2022-11-15T02:27:41;100140.66;;;13.11;56.25
43281;BME280;62175;49.416;8.690;2022-11-15T02:30:19;100129.76;;;13.03;56.24
43281;BME280;62175;49.416;8.690;2022-11-15T02:32:50;100129.65;;;13.42;56.12
43281;BME280;62175;49.416;8.690;2022-11-15T02:35:25;100126.92;;;13.43;55.51
43281;BME280;62175;49.416;8.690;2022-11-15T02:37:58;100123.15;;;13.18;55.50
43281;BME280;62175;49.416;8.690;2022-11-15T02:40:36;100122.60;;;13.32;56.67
43281;BME280;62175;49.416;8.690;2022-11-15T02:43:10;100116.27;;;13.36;56.77
43281;BME280;62175;49.416;8.690;2022-11-15T02:45:40;100096.55;;;13.19;57.14
43281;BME280;62175;49.416;8.690;2022-11-15T02:48:12;100102.48;;;13.44;56.00
43281;BME280;62175;49.416;8.690;2022-11-15T02:50:40;100108.01;;;13.33;56.59
43281;BME280;62175;49.416;8.690;2022-11-15T02:53:08;100104.15;;;13.00;56.46
43281;BME280;62175;49.416;8.690;2022-11-15T02:55:37;100099.17;;;13.13;57.26
43281;BME280;62175;49.416;8.690;2022-11-15T02:58:21;100105.03;;;13.45;57.31
43281;BME280;62175;49.416;8.690;2022-11-15T03:01:00;100090.90;;;12.87;56.24
43281;BME280;62175;49.416;8.690;2022-11-15T03:03:42;100092.76;;;13.10;56.73
43281;BME280;62175;49.416;8.690;2022-11-15T03:06:23;100089.34;;;13.10;56.05
43281;BME280;62175;49.416;8.690;2022-11-15T03:09:03;100093.82;;;13.20;56.00
43281;BME280;62175;49.416;8.690;2022-11-15T03:11:37;100085.08;;;13.12;57.78
43281;BME280;62175;49.416;8.690;2022-11-15T03:14:13;100082.88;;;13.03;56.78
43281;BME280;62175;49.416;8.690;2022-11-15T03:16:48;100086.31;;;13.31;56.34
43281;BME280;62175;49.416;8.690;2022-11-15T03:19:21;100086.24;;;13.12;57.30
43281;BME280;62175;49.416;8.690;2022-11-15T03:21:50;100081.52;;;13.21;56.66
43281;BME280;62175;49.416;8.690;2022-11-15T03:24:19;100078.21;;;13.29;56.98
43281;BME280;62175;49.416;8.690;2022-11-15T03:26:48;100075.16;;;13.49;56.35
43281;BME280;62175;49.416;8.690;2022-11-15T03:29:22;100072.72;;;13.46;56.79
43281;BME280;62175;49.416;8.690;2022-11-15T03:31:55;100076.76;;;13.53;55.61
43281;BME280;62175;49.416;8.690;2022-11-15T03:34:29;100081.19;;;13.16;56.22
43281;BME280;62175;49.416;8.690;2022-11-15T03:36:58;100084.33;;;13.15;55.92
43281;BME280;62175;49.416;8.690;2022-11-15T03:39:25;100086.92;;;13.41;55.96
43281;BME280;62175;49.416;8.690;2022-11-15T03:42:01;100083.72;;;13.06;57.08
43281;BME280;62175;49.416;8.690;2022-11-15T03:44:41;100075.86;;;12.94;57.01
43281;BME280;62175;49.416;8.690;2022-11-15T03:47:17;100071.15;;;13.04;56.52
43281;BME280;62175;49.416;8.690;2022-11-15T03:49:51;100070.76;;;13.13;56.30
43281;BME280;62175;49.416;8.690;2022-11-15T03:52:20;100074.40;;;13.02;56.65
43281;BME280;62175;49.416;8.690;2022-11-15T03:54:49;100071.65;;;13.07;55.70
43281;BME280;62175;49.416;8.690;2022-11-15T03:57:17;100068.41;;;13.44;56.55
43281;BME280;62175;49.416;8.690;2022-11-15T03:59:44;100064.24;;;13.50;56.78
43281;BME280;62175;49.416;8.690;2022-11-15T04:02:13;100071.02;;;13.15;56.17
43281;BME280;62175;49.416;8.690;2022-11-15T04:04:41;100071.45;;;12.90;56.19
43281;BME280;62175;49.416;8.690;2022-11-15T04:07:08;100076.86;;;13.59;56.41
43281;BME280;62175;49.416;8.690;2022-11-15T04:09:36;100073.06;;;13.29;55.80
43281;BME280;62175;49.416;8.690;2022-11-15T04:12:03;100075.82;;;13.22;56.09
43281;BME280;62175;49.416;8.690;2022-11-15T04:14:30;100080.75;;;13.60;55.85
43281;BME280;62175;49.416;8.690;2022-11-15T04:16:57;100084.77;;;13.33;56.23
43281;BME280;62175;49.416;8.690;2022-11-15T04:19:24;100083.00;;;13.02;55.53
43281;BME280;62175;49.416;8.690;2022-11-15T04:21:52;100083.03;;;13.03;56.29
43281;BME280;62175;49.416;8.690;2022-11-15T04:24:19;100075.97;;;13.53;56.45
43281;BME280;62175;49.416;8.690;2022-11-15T04:26:46;100068.25;;;13.31;56.33
43281;BME280;62175;49.416;8.690;2022-11-15T04:29:13;100064.50;;;13.40;56.25
43281;BME280;62175;49.416;8.690;2022-11-15T04:31:40;100063.22;;;13.30;56.06
43281;BME280;62175;49.416;8.690;2022-11-15T04:34:08;100060.57;;;13.28;56.39
43281;BME280;62175;49.416;8.690;2022-11-15T04:36:36;100057.30;;;13.31;56.94
43281;BME280;62175;49.416;8.690;2022-11-15T04:39:03;100052.44;;;13.40;55.84
43281;BME280;62175;49.416;8.690;2022-11-15T04:41:30;100053.30;;;13.32;55.69
43281;BME280;62175;49.416;8.690;2022-11-15T04:43:57;100061.14;;;13.21;56.52
43281;BME280;62175;49.416;8.690;2022-11-15T04:46:25;100060.14;;;13.55;56.41
43281;BME280;62175;49.416;8.690;2022-11-15T04:48:53;100064.14;;;13.72;55.85
43281;BME280;62175;49.416;8.690;2022-11-15T04:51:21;100063.47;;;13.29;55.72
43281;BME280;62175;49.416;8.690;2022-11-15T04:53:48;100060.73;;;13.45;56.27
43281;BME280;62175;49.416;8.690;2022-11-15T04:56:15;100055.10;;;13.05;56.08
43281;BME280;62175;49.416;8.690;2022-11-15T04:58:44;100051.32;;;13.36;56.41
43281;BME280;62175;49.416;8.690;2022-11-15T05:01:13;100050.00;;;13.63;56.34
43281;BME280;62175;49.416;8.690;2022-11-15T05:03:40;100042.80;;;13.33;56.05
43281;BME280;62175;49.416;8.690;2022-11-15T05:06:07;100044.07;;;13.17;56.58
43281;BME280;62175;49.416;8.690;2022-11-15T05:08:34;100038.89;;;13.13;56.93
43281;BME280;62175;49.416;8.690;2022-11-15T05:11:01;100035.21;;;13.11;56.87
43281;BME280;62175;49.416;8.690;2022-11-15T05:13:29;100038.46;;;13.18;56.63
43281;BME280;62175;49.416;8.690;2022-11-15T05:15:56;100036.22;;;13.40;56.46
43281;BME280;62175;49.416;8.690;2022-11-15T05:18:23;100031.92;;;13.09;56.49
43281;BME280;62175;49.416;8.690;2022-11-15T05:20:50;100030.18;;;13.24;56.72
43281;BME280;62175;49.416;8.690;2022-11-15T05:23:17;100030.08;;;13.31;56.53
43281;BME280;62175;49.416;8.690;2022-11-15T05:25:45;100026.91;;;13.31;56.46
43281;BME280;62175;49.416;8.690;2022-11-15T05:28:12;100030.06;;;13.16;55.66
43281;BME280;62175;49.416;8.690;2022-11-15T05:30:39;100026.64;;;13.16;56.55
43281;BME280;62175;49.416;8.690;2022-11-15T05:33:06;100024.48;;;13.12;56.35
43281;BME280;62175;49.416;8.690;2022-11-15T05:35:36;100026.37;;;13.50;56.66
43281;BME280;62175;49.416;8.690;2022-11-15T05:38:05;100023.54;;;13.28;56.21
43281;BME280;62175;49.416;8.690;2022-11-15T05:40:33;100027.54;;;13.60;56.53
43281;BME280;62175;49.416;8.690;2022-11-15T05:43:02;100028.23;;;13.31;55.76
43281;BME280;62175;49.416;8.690;2022-11-15T05:45:31;100024.94;;;13.45;56.54
43281;BME280;62175;49.416;8.690;2022-11-15T05:48:03;100024.03;;;13.39;56.60
43281;BME280;62175;49.416;8.690;2022-11-15T05:50:33;100028.95;;;13.60;56.36
43281;BME280;62175;49.416;8.690;2022-11-15T05:53:01;100028.14;;;13.37;56.48
43281;BME280;62175;49.416;8.690;2022-11-15T05:55:29;100028.10;;;13.62;57.61
43281;BME280;62175;49.416;8.690;2022-11-15T05:57:56;100028.76;;;13.21;56.32
43281;BME280;62175;49.416;8.690;2022-11-15T06:00:23;100031.77;;;13.36;57.10
43281;BME280;62175;49.416;8.690;2022-11-15T06:02:50;100034.27;;;13.24;56.92
43281;BME280;62175;49.416;8.690;2022-11-15T06:05:17;100032.05;;;13.56;56.87
43281;BME280;62175;49.416;8.690;2022-11-15T06:07:45;100033.89;;;13.39;57.38
43281;BME280;62175;49.416;8.690;2022-11-15T06:10:12;100037.79;;;13.38;57.71
43281;BME280;62175;49.416;8.690;2022-11-15T06:12:39;100037.97;;;13.41;56.71
43281;BME280;62175;49.416;8.690;2022-11-15T06:15:07;100027.52;;;13.39;57.29
43281;BME280;62175;49.416;8.690;2022-11-15T06:17:34;100030.21;;;13.37;56.33
43281;BME280;62175;49.416;8.690;2022-11-15T06:20:02;100029.92;;;13.55;56.99
43281;BME280;62175;49.416;8.690;2022-11-15T06:22:29;100031.36;;;13.28;56.86
43281;BME280;62175;49.416;8.690;2022-11-15T06:24:56;100036.22;;;13.41;56.80
43281;BME280;62175;49.416;8.690;2022-11-15T06:27:23;100034.98;;;13.40;56.58
43281;BME280;62175;49.416;8.690;2022-11-15T06:29:50;100036.22;;;13.35;56.22
43281;BME280;62175;49.416;8.690;2022-11-15T06:32:17;100037.67;;;13.31;56.98
43281;BME280;62175;49.416;8.690;2022-11-15T06:34:45;100037.02;;;13.30;56.25
43281;BME280;62175;49.416;8.690;2022-11-15T06:37:12;100037.04;;;13.28;56.46
43281;BME280;62175;49.416;8.690;2022-11-15T06:39:39;100041.69;;;13.26;56.44
43281;BME280;62175;49.416;8.690;2022-11-15T06:42:08;100039.19;;;13.35;56.73
43281;BME280;62175;49.416;8.690;2022-11-15T06:44:36;100038.09;;;13.14;57.38
43281;BME280;62175;49.416;8.690;2022-11-15T06:47:03;100038.18;;;13.49;56.31
43281;BME280;62175;49.416;8.690;2022-11-15T06:49:30;100041.87;;;13.40;56.34
43281;BME280;62175;49.416;8.690;2022-11-15T06:51:57;100039.68;;;13.34;56.84
43281;BME280;62175;49.416;8.690;2022-11-15T06:54:24;100033.25;;;13.03;56.89
43281;BME280;62175;49.416;8.690;2022-11-15T06:56:51;100028.29;;;13.22;56.11
43281;BME280;62175;49.416;8.690;2022-11-15T06:59:18;100021.39;;;13.60;56.82
43281;BME280;62175;49.416;8.690;2022-11-15T07:01:45;100025.71;;;13.50;56.83
43281;BME280;62175;49.416;8.690;2022-11-15T07:04:13;100021.36;;;13.65;56.62
43281;BME280;62175;49.416;8.690;2022-11-15T07:06:40;100022.19;;;13.26;56.73
43281;BME280;62175;49.416;8.690;2022-11-15T07:09:08;100024.47;;;13.30;57.04
43281;BME280;62175;49.416;8.690;2022-11-15T07:11:35;100025.66;;;13.33;56.45
43281;BME280;62175;49.416;8.690;2022-11-15T07:14:02;100031.21;;;13.21;56.64
43281;BME280;62175;49.416;8.690;2022-11-15T07:16:29;100041.02;;;13.32;57.00
43281;BME280;62175;49.416;8.690;2022-11-15T07:18:57;100046.42;;;13.60;56.81
43281;BME280;62175;49.416;8.690;2022-11-15T07:21:24;100051.70;;;13.60;56.25
43281;BME280;62175;49.416;8.690;2022-11-15T07:23:51;100052.92;;;13.55;56.59
43281;BME280;62175;49.416;8.690;2022-11-15T07:26:18;100051.82;;;13.41;56.90
43281;BME280;62175;49.416;8.690;2022-11-15T07:28:45;100050.00;;;13.96;56.72
43281;BME280;62175;49.416;8.690;2022-11-15T07:31:12;100052.60;;;13.70;56.42
43281;BME280;62175;49.416;8.690;2022-11-15T07:33:40;100046.99;;;13.31;56.62
43281;BME280;62175;49.416;8.690;2022-11-15T07:36:09;100045.01;;;13.41;56.64
43281;BME280;62175;49.416;8.690;2022-11-15T07:38:36;100045.35;;;13.41;56.74
43281;BME280;62175;49.416;8.690;2022-11-15T07:41:04;100047.70;;;13.46;56.35
43281;BME280;62175;49.416;8.690;2022-11-15T07:43:32;100053.39;;;13.44;56.31
43281;BME280;62175;49.416;8.690;2022-11-15T07:46:04;100047.71;;;13.33;56.72
43281;BME280;62175;49.416;8.690;2022-11-15T07:48:32;100051.28;;;13.59;56.64
43281;BME280;62175;49.416;8.690;2022-11-15T07:50:59;100047.95;;;13.69;57.09
43281;BME280;62175;49.416;8.690;2022-11-15T07:53:26;100046.92;;;13.41;57.72
43281;BME280;62175;49.416;8.690;2022-11-15T07:55:53;100046.19;;;13.32;57.05
43281;BME280;62175;49.416;8.690;2022-11-15T07:58:20;100052.68;;;13.41;56.71
43281;BME280;62175;49.416;8.690;2022-11-15T08:00:47;100053.95;;;13.37;56.61
43281;BME280;62175;49.416;8.690;2022-11-15T08:03:16;100048.10;;;13.65;57.69
43281;BME280;62175;49.416;8.690;2022-11-15T08:05:43;100047.72;;;13.61;57.24
43281;BME280;62175;49.416;8.690;2022-11-15T08:08:16;100046.66;;;14.02;57.38
43281;BME280;62175;49.416;8.690;2022-11-15T08:10:44;100044.89;;;13.41;57.01
43281;BME280;62175;49.416;8.690;2022-11-15T08:13:12;100036.06;;;13.61;56.73
43281;BME280;62175;49.416;8.690;2022-11-15T08:15:39;100042.69;;;13.60;57.12
43281;BME280;62175;49.416;8.690;2022-11-15T08:18:10;100036.89;;;13.66;57.40
43281;BME280;62175;49.416;8.690;2022-11-15T08:20:37;100028.76;;;13.58;57.60
43281;BME280;62175;49.416;8.690;2022-11-15T08:23:06;100032.64;;;13.42;58.68
43281;BME280;62175;49.416;8.690;2022-11-15T08:25:36;100032.39;;;13.84;56.73
43281;BME280;62175;49.416;8.690;2022-11-15T08:28:06;100036.96;;;13.67;56.85
43281;BME280;62175;49.416;8.690;2022-11-15T08:30:36;100030.11;;;14.01;56.67
43281;BME280;62175;49.416;8.690;2022-11-15T08:33:04;100022.53;;;13.94;56.97
43281;BME280;62175;49.416;8.690;2022-11-15T08:35:31;100021.94;;;13.69;57.37
43281;BME280;62175;49.416;8.690;2022-11-15T08:39:03;100020.14;;;14.00;56.71
43281;BME280;62175;49.416;8.690;2022-11-15T08:41:40;100021.00;;;14.10;56.75
43281;BME280;62175;49.416;8.690;2022-11-15T08:44:08;100022.53;;;13.68;57.48
43281;BME280;62175;49.416;8.690;2022-11-15T08:55:03;100006.91;;;14.42;58.16
43281;BME280;62175;49.416;8.690;2022-11-15T08:57:31;100006.85;;;13.51;58.34
43281;BME280;62175;49.416;8.690;2022-11-15T08:59:59;100008.12;;;13.92;58.06
43281;BME280;62175;49.416;8.690;2022-11-15T09:02:26;100008.61;;;13.79;57.45
43281;BME280;62175;49.416;8.690;2022-11-15T09:04:53;100014.34;;;13.88;57.89
43281;BME280;62175;49.416;8.690;2022-11-15T09:07:20;100016.79;;;13.90;57.08
43281;BME280;62175;49.416;8.690;2022-11-15T09:09:48;100017.12;;;14.00;56.94
43281;BME280;62175;49.416;8.690;2022-11-15T09:12:15;100015.66;;;13.88;57.52
43281;BME280;62175;49.416;8.690;2022-11-15T09:14:42;100012.88;;;13.86;57.31
43281;BME280;62175;49.416;8.690;2022-11-15T09:17:09;100013.96;;;13.96;57.17
43281;BME280;62175;49.416;8.690;2022-11-15T09:19:36;100014.76;;;13.75;57.31
43281;BME280;62175;49.416;8.690;2022-11-15T09:22:06;100014.40;;;14.08;56.76
43281;BME280;62175;49.416;8.690;2022-11-15T09:24:33;100018.01;;;14.03;57.39
43281;BME280;62175;49.416;8.690;2022-11-15T09:27:01;100013.55;;;14.13;56.31
43281;BME280;62175;49.416;8.690;2022-11-15T09:29:28;100012.34;;;14.17;56.41
43281;BME280;62175;49.416;8.690;2022-11-15T09:31:55;100013.26;;;14.16;56.95
43281;BME280;62175;49.416;8.690;2022-11-15T09:34:22;100014.52;;;14.19;56.20
43281;BME280;62175;49.416;8.690;2022-11-15T09:36:49;100012.22;;;14.19;56.85
43281;BME280;62175;49.416;8.690;2022-11-15T09:39:16;100011.64;;;14.22;56.58
43281;BME280;62175;49.416;8.690;2022-11-15T09:41:55;100010.43;;;14.16;56.63
43281;BME280;62175;49.416;8.690;2022-11-15T09:44:42;100006.21;;;14.00;56.41
43281;BME280;62175;49.416;8.690;2022-11-15T09:47:31;99997.22;;;14.27;56.72
43281;BME280;62175;49.416;8.690;2022-11-15T09:50:10;100000.76;;;14.12;56.53
43281;BME280;62175;49.416;8.690;2022-11-15T09:52:41;99998.49;;;14.26;56.71
43281;BME280;62175;49.416;8.690;2022-11-15T09:55:10;99996.59;;;14.30;56.87
43281;BME280;62175;49.416;8.690;2022-11-15T09:57:48;99993.70;;;14.23;57.00
43281;BME280;62175;49.416;8.690;2022-11-15T10:00:24;99990.32;;;14.31;56.80
43281;BME280;62175;49.416;8.690;2022-11-15T10:03:08;99984.25;;;14.37;56.88
43281;BME280;62175;49.416;8.690;2022-11-15T10:05:39;99985.96;;;14.42;56.82
43281;BME280;62175;49.416;8.690;2022-11-15T10:08:17;99985.36;;;14.45;56.90
43281;BME280;62175;49.416;8.690;2022-11-15T10:10:53;99982.22;;;14.42;56.74
43281;BME280;62175;49.416;8.690;2022-11-15T10:13:24;99982.59;;;13.92;56.96
43281;BME280;62175;49.416;8.690;2022-11-15T10:15:54;99981.00;;;14.21;57.10
43281;BME280;62175;49.416;8.690;2022-11-15T10:18:33;99980.34;;;13.88;56.94
43281;BME280;62175;49.416;8.690;2022-11-15T10:21:12;99980.25;;;14.49;56.70
43281;BME280;62175;49.416;8.690;2022-11-15T10:23:43;99979.18;;;14.45;56.90
43281;BME280;62175;49.416;8.690;2022-11-15T10:26:13;99973.98;;;14.30;56.54
43281;BME280;62175;49.416;8.690;2022-11-15T10:28:41;99971.04;;;14.47;56.47
43281;BME280;62175;49.416;8.690;2022-11-15T10:31:22;99968.08;;;14.32;56.67
43281;BME280;62175;49.416;8.690;2022-11-15T10:33:49;99962.71;;;14.52;56.52
43281;BME280;62175;49.416;8.690;2022-11-15T10:36:20;99963.71;;;14.07;56.49
43281;BME280;62175;49.416;8.690;2022-11-15T10:38:54;99960.59;;;14.49;56.59
43281;BME280;62175;49.416;8.690;2022-11-15T10:41:28;99955.97;;;14.27;56.52
43281;BME280;62175;49.416;8.690;2022-11-15T10:44:12;99953.64;;;14.36;56.79
43281;BME280;62175;49.416;8.690;2022-11-15T10:46:46;99950.12;;;14.34;56.66
43281;BME280;62175;49.416;8.690;2022-11-15T10:49:15;99947.12;;;14.34;56.58
43281;BME280;62175;49.416;8.690;2022-11-15T10:51:47;99942.66;;;14.37;56.73
43281;BME280;62175;49.416;8.690;2022-11-15T10:54:21;99947.72;;;14.39;56.82
43281;BME280;62175;49.416;8.690;2022-11-15T10:56:52;99941.10;;;14.57;56.77
43281;BME280;62175;49.416;8.690;2022-11-15T10:59:27;99934.49;;;14.58;56.75
43281;BME280;62175;49.416;8.690;2022-11-15T11:01:55;99929.51;;;14.34;56.79
43281;BME280;62175;49.416;8.690;2022-11-15T11:04:22;99923.49;;;14.38;56.66
43281;BME280;62175;49.416;8.690;2022-11-15T11:06:51;99918.07;;;14.41;56.39
43281;BME280;62175;49.416;8.690;2022-11-15T11:09:27;99915.78;;;14.12;56.46
43281;BME280;62175;49.416;8.690;2022-11-15T11:11:55;99910.34;;;14.71;56.56
43281;BME280;62175;49.416;8.690;2022-11-15T11:14:24;99909.10;;;14.40;56.83
43281;BME280;62175;49.416;8.690;2022-11-15T11:16:55;99908.27;;;14.25;56.76
43281;BME280;62175;49.416;8.690;2022-11-15T11:19:37;99907.90;;;14.50;56.79
43281;BME280;62175;49.416;8.690;2022-11-15T11:22:16;99900.41;;;14.68;56.90
43281;BME280;62175;49.416;8.690;2022-11-15T11:24:53;99895.47;;;14.49;56.88
43281;BME280;62175;49.416;8.690;2022-11-15T11:27:36;99893.94;;;14.73;57.14
43281;BME280;62175;49.416;8.690;2022-11-15T11:30:10;99888.50;;;14.82;56.49
43281;BME280;62175;49.416;8.690;2022-11-15T11:33:19;99880.26;;;14.61;56.46
43281;BME280;62175;49.416;8.690;2022-11-15T11:35:58;99869.96;;;14.57;56.54
43281;BME280;62175;49.416;8.690;2022-11-15T11:38:38;99865.86;;;14.32;56.86
43281;BME280;62175;49.416;8.690;2022-11-15T11:41:17;99852.77;;;14.60;57.16
43281;BME280;62175;49.416;8.690;2022-11-15T11:43:55;99848.99;;;14.56;57.21
43281;BME280;62175;49.416;8.690;2022-11-15T11:46:41;99850.53;;;14.37;57.16
43281;BME280;62175;49.416;8.690;2022-11-15T11:49:18;99848.04;;;14.74;57.02
43281;BME280;62175;49.416;8.690;2022-11-15T11:51:50;99841.03;;;14.89;57.12
43281;BME280;62175;49.416;8.690;2022-11-15T11:54:23;99836.68;;;14.44;57.28
43281;BME280;62175;49.416;8.690;2022-11-15T11:56:53;99834.53;;;14.75;57.14
43281;BME280;62175;49.416;8.690;2022-11-15T11:59:36;99826.17;;;14.97;57.20
43281;BME280;62175;49.416;8.690;2022-11-15T12:02:15;99828.37;;;14.45;57.20
43281;BME280;62175;49.416;8.690;2022-11-15T12:04:49;99818.57;;;14.46;57.29
43281;BME280;62175;49.416;8.690;2022-11-15T12:07:21;99811.55;;;14.50;57.34
43281;BME280;62175;49.416;8.690;2022-11-15T12:10:03;99804.65;;;14.47;57.49
43281;BME280;62175;49.416;8.690;2022-11-15T12:12:51;99803.63;;;15.01;57.47
43281;BME280;62175;49.416;8.690;2022-11-15T12:15:23;99800.62;;;14.49;57.41
43281;BME280;62175;49.416;8.690;2022-11-15T12:17:52;99806.68;;;14.71;57.60
43281;BME280;62175;49.416;8.690;2022-11-15T12:20:24;99800.04;;;14.45;57.45
43281;BME280;62175;49.416;8.690;2022-11-15T12:22:54;99791.85;;;14.44;57.50
43281;BME280;62175;49.416;8.690;2022-11-15T12:25:28;99784.14;;;14.41;57.49
43281;BME280;62175;49.416;8.690;2022-11-15T12:28:03;99782.76;;;14.59;57.14
43281;BME280;62175;49.416;8.690;2022-11-15T12:30:43;99779.44;;;14.50;57.29
43281;BME280;62175;49.416;8.690;2022-11-15T12:33:30;99775.06;;;14.76;57.28
43281;BME280;62175;49.416;8.690;2022-11-15T12:36:00;99773.88;;;14.55;57.46
43281;BME280;62175;49.416;8.690;2022-11-15T12:39:02;99772.28;;;14.54;57.62
43281;BME280;62175;49.416;8.690;2022-11-15T12:41:31;99766.83;;;14.50;57.91
43281;BME280;62175;49.416;8.690;2022-11-15T12:44:00;99761.49;;;14.62;57.53
43281;BME280;62175;49.416;8.690;2022-11-15T12:47:03;99758.19;;;14.88;57.32
43281;BME280;62175;49.416;8.690;2022-11-15T12:49:47;99751.63;;;14.54;57.56
43281;BME280;62175;49.416;8.690;2022-11-15T12:52:15;99739.80;;;14.61;57.62
43281;BME280;62175;49.416;8.690;2022-11-15T12:55:02;99738.70;;;14.85;57.51
43281;BME280;62175;49.416;8.690;2022-11-15T12:57:55;99743.15;;;14.77;57.80
43281;BME280;62175;49.416;8.690;2022-11-15T13:00:47;99740.51;;;14.63;57.67
43281;BME280;62175;49.416;8.690;2022-11-15T13:03:24;99739.32;;;14.62;57.76
43281;BME280;62175;49.416;8.690;2022-11-15T13:05:57;99738.95;;;14.61;57.56
43281;BME280;62175;49.416;8.690;2022-11-15T13:08:44;99739.32;;;14.66;57.58
43281;BME280;62175;49.416;8.690;2022-11-15T13:11:47;99735.77;;;14.66;57.35
43281;BME280;62175;49.416;8.690;2022-11-15T13:14:50;99731.91;;;14.82;56.83
43281;BME280;62175;49.416;8.690;2022-11-15T13:17:25;99729.07;;;14.79;57.16
43281;BME280;62175;49.416;8.690;2022-11-15T13:19:58;99726.91;;;14.99;56.64
43281;BME280;62175;49.416;8.690;2022-11-15T13:22:26;99721.90;;;14.83;57.35
43281;BME280;62175;49.416;8.690;2022-11-15T13:24:54;99721.84;;;14.87;56.93